sensor_id;sensor_type;location;lat;lon;timestamp;P1;durP1;ratioP1;P2;durP2;ratioP2
31848;SDS011;18414;59.352;18.152;2023-06-24T00:01:33;5.57;;;4.50;;
31848;SDS011;18414;59.352;18.152;2023-06-24T00:03:59;5.82;;;5.07;;
31848;SDS011;18414;59.352;18.152;2023-06-24T00:06:24;6.38;;;4.53;;
31848;SDS011;18414;59.352;18.152;2023-06-24T00:08:51;5.23;;;4.37;;
31848;SDS011;18414;59.352;18.152;2023-06-24T00:11:17;4.95;;;4.05;;
31848;SDS011;18414;59.352;18.152;2023-06-24T00:13:43;5.27;;;4.60;;
31848;SDS011;18414;59.352;18.152;2023-06-24T00:16:08;5.95;;;4.63;;
31848;SDS011;18414;59.352;18.152;2023-06-24T00:18:35;5.35;;;4.40;;
31848;SDS011;18414;59.352;18.152;2023-06-24T00:21:01;5.97;;;4.72;;
31848;SDS011;18414;59.352;18.152;2023-06-24T00:23:28;7.30;;;4.57;;
31848;SDS011;18414;59.352;18.152;2023-06-24T00:25:55;6.30;;;4.90;;
31848;SDS011;18414;59.352;18.152;2023-06-24T00:28:21;5.90;;;4.80;;
31848;SDS011;18414;59.352;18.152;2023-06-24T00:30:47;8.10;;;4.80;;
31848;SDS011;18414;59.352;18.152;2023-06-24T00:33:13;6.03;;;4.43;;
31848;SDS011;18414;59.352;18.152;2023-06-24T00:35:39;7.07;;;5.07;;
31848;SDS011;18414;59.352;18.152;2023-06-24T00:38:05;5.18;;;4.68;;
31848;SDS011;18414;59.352;18.152;2023-06-24T00:40:31;4.90;;;4.40;;
31848;SDS011;18414;59.352;18.152;2023-06-24T00:42:56;4.95;;;4.45;;
31848;SDS011;18414;59.352;18.152;2023-06-24T00:45:22;6.20;;;4.45;;
31848;SDS011;18414;59.352;18.152;2023-06-24T00:47:47;5.40;;;4.50;;
31848;SDS011;18414;59.352;18.152;2023-06-24T00:50:14;9.82;;;4.18;;
31848;SDS011;18414;59.352;18.152;2023-06-24T00:52:40;6.20;;;4.43;;
31848;SDS011;18414;59.352;18.152;2023-06-24T00:55:07;5.23;;;4.70;;
31848;SDS011;18414;59.352;18.152;2023-06-24T00:57:34;5.80;;;5.15;;
31848;SDS011;18414;59.352;18.152;2023-06-24T01:00:02;5.90;;;4.70;;
31848;SDS011;18414;59.352;18.152;2023-06-24T01:02:30;5.77;;;4.77;;
31848;SDS011;18414;59.352;18.152;2023-06-24T01:04:57;5.97;;;4.80;;
31848;SDS011;18414;59.352;18.152;2023-06-24T01:07:22;7.28;;;6.32;;
31848;SDS011;18414;59.352;18.152;2023-06-24T01:09:48;5.73;;;5.13;;
31848;SDS011;18414;59.352;18.152;2023-06-24T01:12:13;6.20;;;5.60;;
31848;SDS011;18414;59.352;18.152;2023-06-24T01:14:39;6.30;;;5.50;;
31848;SDS011;18414;59.352;18.152;2023-06-24T01:17:23;6.40;;;5.70;;
31848;SDS011;18414;59.352;18.152;2023-06-24T01:22:47;5.93;;;5.03;;
31848;SDS011;18414;59.352;18.152;2023-06-24T01:28:07;6.77;;;5.20;;
31848;SDS011;18414;59.352;18.152;2023-06-24T01:33:26;8.60;;;5.37;;
31848;SDS011;18414;59.352;18.152;2023-06-24T01:36:20;5.77;;;5.10;;
31848;SDS011;18414;59.352;18.152;2023-06-24T01:39:09;6.97;;;5.13;;
31848;SDS011;18414;59.352;18.152;2023-06-24T01:41:40;6.50;;;5.10;;
31848;SDS011;18414;59.352;18.152;2023-06-24T01:44:12;5.72;;;4.63;;
31848;SDS011;18414;59.352;18.152;2023-06-24T01:46:39;6.13;;;5.27;;
31848;SDS011;18414;59.352;18.152;2023-06-24T01:49:06;6.97;;;4.93;;
31848;SDS011;18414;59.352;18.152;2023-06-24T01:51:32;6.93;;;5.15;;
31848;SDS011;18414;59.352;18.152;2023-06-24T01:54:00;7.18;;;5.50;;
31848;SDS011;18414;59.352;18.152;2023-06-24T01:56:27;5.70;;;4.77;;
31848;SDS011;18414;59.352;18.152;2023-06-24T01:58:54;6.40;;;5.33;;
31848;SDS011;18414;59.352;18.152;2023-06-24T02:01:21;6.37;;;5.50;;
31848;SDS011;18414;59.352;18.152;2023-06-24T02:03:48;6.33;;;5.20;;
31848;SDS011;18414;59.352;18.152;2023-06-24T02:06:13;7.30;;;4.73;;
31848;SDS011;18414;59.352;18.152;2023-06-24T02:08:39;7.40;;;5.20;;
31848;SDS011;18414;59.352;18.152;2023-06-24T02:11:05;5.00;;;3.60;;
31848;SDS011;18414;59.352;18.152;2023-06-24T02:13:32;5.57;;;4.10;;
31848;SDS011;18414;59.352;18.152;2023-06-24T02:16:00;5.87;;;4.10;;
31848;SDS011;18414;59.352;18.152;2023-06-24T02:18:27;3.70;;;3.40;;
31848;SDS011;18414;59.352;18.152;2023-06-24T02:20:53;4.00;;;3.40;;
31848;SDS011;18414;59.352;18.152;2023-06-24T02:23:20;4.87;;;3.70;;
31848;SDS011;18414;59.352;18.152;2023-06-24T02:25:46;3.70;;;3.07;;
31848;SDS011;18414;59.352;18.152;2023-06-24T02:28:12;4.15;;;3.75;;
31848;SDS011;18414;59.352;18.152;2023-06-24T02:30:39;3.30;;;3.00;;
31848;SDS011;18414;59.352;18.152;2023-06-24T02:33:05;4.50;;;3.92;;
31848;SDS011;18414;59.352;18.152;2023-06-24T02:35:31;3.10;;;2.80;;
31848;SDS011;18414;59.352;18.152;2023-06-24T02:37:56;2.80;;;2.40;;
31848;SDS011;18414;59.352;18.152;2023-06-24T02:40:22;3.97;;;3.58;;
31848;SDS011;18414;59.352;18.152;2023-06-24T02:42:47;3.83;;;3.30;;
31848;SDS011;18414;59.352;18.152;2023-06-24T02:45:13;3.72;;;3.33;;
31848;SDS011;18414;59.352;18.152;2023-06-24T02:47:38;3.45;;;3.15;;
31848;SDS011;18414;59.352;18.152;2023-06-24T02:50:04;3.10;;;2.83;;
31848;SDS011;18414;59.352;18.152;2023-06-24T02:52:31;4.28;;;3.10;;
31848;SDS011;18414;59.352;18.152;2023-06-24T02:54:56;2.40;;;2.20;;
31848;SDS011;18414;59.352;18.152;2023-06-24T02:57:23;2.10;;;1.90;;
31848;SDS011;18414;59.352;18.152;2023-06-24T02:59:50;2.05;;;1.80;;
31848;SDS011;18414;59.352;18.152;2023-06-24T03:02:15;1.85;;;1.75;;
31848;SDS011;18414;59.352;18.152;2023-06-24T03:04:41;2.33;;;1.80;;
31848;SDS011;18414;59.352;18.152;2023-06-24T03:07:07;1.85;;;1.75;;
31848;SDS011;18414;59.352;18.152;2023-06-24T03:09:35;2.70;;;1.83;;
31848;SDS011;18414;59.352;18.152;2023-06-24T03:12:01;1.95;;;1.75;;
31848;SDS011;18414;59.352;18.152;2023-06-24T03:14:26;3.15;;;2.15;;
31848;SDS011;18414;59.352;18.152;2023-06-24T03:16:51;2.00;;;1.73;;
31848;SDS011;18414;59.352;18.152;2023-06-24T03:19:17;2.00;;;1.90;;
31848;SDS011;18414;59.352;18.152;2023-06-24T03:21:42;3.63;;;1.80;;
31848;SDS011;18414;59.352;18.152;2023-06-24T03:24:08;2.15;;;1.50;;
31848;SDS011;18414;59.352;18.152;2023-06-24T03:26:37;2.55;;;1.55;;
31848;SDS011;18414;59.352;18.152;2023-06-24T03:29:03;2.03;;;1.67;;
31848;SDS011;18414;59.352;18.152;2023-06-24T03:31:28;2.08;;;1.70;;
31848;SDS011;18414;59.352;18.152;2023-06-24T03:33:54;2.28;;;1.60;;
31848;SDS011;18414;59.352;18.152;2023-06-24T03:36:20;1.80;;;1.50;;
31848;SDS011;18414;59.352;18.152;2023-06-24T03:38:45;1.40;;;1.30;;
31848;SDS011;18414;59.352;18.152;2023-06-24T03:41:11;2.50;;;1.60;;
31848;SDS011;18414;59.352;18.152;2023-06-24T03:43:37;1.65;;;1.55;;
31848;SDS011;18414;59.352;18.152;2023-06-24T03:46:02;3.40;;;1.60;;
31848;SDS011;18414;59.352;18.152;2023-06-24T03:48:28;1.73;;;1.60;;
31848;SDS011;18414;59.352;18.152;2023-06-24T03:50:53;2.10;;;1.60;;
31848;SDS011;18414;59.352;18.152;2023-06-24T03:53:18;1.75;;;1.65;;
31848;SDS011;18414;59.352;18.152;2023-06-24T03:55:44;4.85;;;2.58;;
31848;SDS011;18414;59.352;18.152;2023-06-24T03:58:09;1.80;;;1.60;;
31848;SDS011;18414;59.352;18.152;2023-06-24T04:00:34;3.15;;;1.88;;
31848;SDS011;18414;59.352;18.152;2023-06-24T04:03:04;2.33;;;1.95;;
31848;SDS011;18414;59.352;18.152;2023-06-24T04:05:29;2.78;;;1.80;;
31848;SDS011;18414;59.352;18.152;2023-06-24T04:07:54;2.45;;;1.90;;
31848;SDS011;18414;59.352;18.152;2023-06-24T04:10:20;3.80;;;1.98;;
31848;SDS011;18414;59.352;18.152;2023-06-24T04:12:45;3.13;;;1.92;;
31848;SDS011;18414;59.352;18.152;2023-06-24T04:15:11;2.80;;;1.42;;
31848;SDS011;18414;59.352;18.152;2023-06-24T04:17:36;2.78;;;1.77;;
31848;SDS011;18414;59.352;18.152;2023-06-24T04:20:02;1.75;;;1.50;;
31848;SDS011;18414;59.352;18.152;2023-06-24T04:22:29;2.15;;;1.42;;
31848;SDS011;18414;59.352;18.152;2023-06-24T04:24:55;1.80;;;1.42;;
31848;SDS011;18414;59.352;18.152;2023-06-24T04:27:20;1.80;;;1.65;;
31848;SDS011;18414;59.352;18.152;2023-06-24T04:29:45;1.58;;;1.42;;
31848;SDS011;18414;59.352;18.152;2023-06-24T04:32:11;1.38;;;1.27;;
31848;SDS011;18414;59.352;18.152;2023-06-24T04:34:36;1.80;;;1.45;;
31848;SDS011;18414;59.352;18.152;2023-06-24T04:37:01;1.40;;;1.30;;
31848;SDS011;18414;59.352;18.152;2023-06-24T04:39:27;1.60;;;1.40;;
31848;SDS011;18414;59.352;18.152;2023-06-24T04:41:52;2.85;;;1.60;;
31848;SDS011;18414;59.352;18.152;2023-06-24T04:44:17;3.78;;;1.58;;
31848;SDS011;18414;59.352;18.152;2023-06-24T04:46:45;2.90;;;1.38;;
31848;SDS011;18414;59.352;18.152;2023-06-24T04:49:11;2.05;;;1.45;;
31848;SDS011;18414;59.352;18.152;2023-06-24T04:51:36;2.28;;;1.70;;
31848;SDS011;18414;59.352;18.152;2023-06-24T04:54:01;1.83;;;1.38;;
31848;SDS011;18414;59.352;18.152;2023-06-24T04:56:28;2.00;;;1.20;;
31848;SDS011;18414;59.352;18.152;2023-06-24T04:58:53;2.13;;;1.55;;
31848;SDS011;18414;59.352;18.152;2023-06-24T05:01:19;2.05;;;1.40;;
31848;SDS011;18414;59.352;18.152;2023-06-24T05:03:44;1.83;;;1.30;;
31848;SDS011;18414;59.352;18.152;2023-06-24T05:06:09;2.90;;;1.60;;
31848;SDS011;18414;59.352;18.152;2023-06-24T05:08:35;2.40;;;1.38;;
31848;SDS011;18414;59.352;18.152;2023-06-24T05:11:00;1.70;;;1.40;;
31848;SDS011;18414;59.352;18.152;2023-06-24T05:13:27;2.42;;;1.50;;
31848;SDS011;18414;59.352;18.152;2023-06-24T05:15:52;2.67;;;1.52;;
31848;SDS011;18414;59.352;18.152;2023-06-24T05:18:18;3.30;;;1.55;;
31848;SDS011;18414;59.352;18.152;2023-06-24T05:20:43;1.75;;;1.30;;
31848;SDS011;18414;59.352;18.152;2023-06-24T05:23:08;2.58;;;1.30;;
31848;SDS011;18414;59.352;18.152;2023-06-24T05:25:33;3.00;;;1.63;;
31848;SDS011;18414;59.352;18.152;2023-06-24T05:28:00;2.28;;;1.60;;
31848;SDS011;18414;59.352;18.152;2023-06-24T05:30:25;2.53;;;1.38;;
31848;SDS011;18414;59.352;18.152;2023-06-24T05:32:50;2.10;;;1.40;;
31848;SDS011;18414;59.352;18.152;2023-06-24T05:35:16;3.88;;;1.60;;
31848;SDS011;18414;59.352;18.152;2023-06-24T05:37:41;1.95;;;1.33;;
31848;SDS011;18414;59.352;18.152;2023-06-24T05:40:07;2.45;;;1.52;;
31848;SDS011;18414;59.352;18.152;2023-06-24T05:42:34;2.67;;;1.60;;
31848;SDS011;18414;59.352;18.152;2023-06-24T05:44:59;2.33;;;1.65;;
31848;SDS011;18414;59.352;18.152;2023-06-24T05:47:25;3.05;;;1.38;;
31848;SDS011;18414;59.352;18.152;2023-06-24T05:49:50;2.45;;;1.48;;
31848;SDS011;18414;59.352;18.152;2023-06-24T05:52:16;3.05;;;1.50;;
31848;SDS011;18414;59.352;18.152;2023-06-24T05:54:42;2.80;;;1.67;;
31848;SDS011;18414;59.352;18.152;2023-06-24T05:57:07;3.60;;;1.60;;
31848;SDS011;18414;59.352;18.152;2023-06-24T05:59:33;3.42;;;1.55;;
31848;SDS011;18414;59.352;18.152;2023-06-24T06:01:58;2.35;;;1.48;;
31848;SDS011;18414;59.352;18.152;2023-06-24T06:04:24;2.50;;;1.27;;
31848;SDS011;18414;59.352;18.152;2023-06-24T06:06:49;2.30;;;1.23;;
31848;SDS011;18414;59.352;18.152;2023-06-24T06:09:14;4.57;;;1.60;;
31848;SDS011;18414;59.352;18.152;2023-06-24T06:11:40;3.08;;;1.60;;
31848;SDS011;18414;59.352;18.152;2023-06-24T06:14:05;1.77;;;1.40;;
31848;SDS011;18414;59.352;18.152;2023-06-24T06:16:31;1.90;;;1.40;;
31848;SDS011;18414;59.352;18.152;2023-06-24T06:18:56;2.58;;;1.40;;
31848;SDS011;18414;59.352;18.152;2023-06-24T06:21:21;2.65;;;1.10;;
31848;SDS011;18414;59.352;18.152;2023-06-24T06:23:47;3.55;;;1.70;;
31848;SDS011;18414;59.352;18.152;2023-06-24T06:26:12;3.38;;;1.38;;
31848;SDS011;18414;59.352;18.152;2023-06-24T06:28:37;1.90;;;1.15;;
31848;SDS011;18414;59.352;18.152;2023-06-24T06:31:03;2.38;;;1.35;;
31848;SDS011;18414;59.352;18.152;2023-06-24T06:33:28;1.90;;;1.20;;
31848;SDS011;18414;59.352;18.152;2023-06-24T06:35:53;2.08;;;1.38;;
31848;SDS011;18414;59.352;18.152;2023-06-24T06:38:19;3.00;;;1.42;;
31848;SDS011;18414;59.352;18.152;2023-06-24T06:40:44;3.38;;;1.33;;
31848;SDS011;18414;59.352;18.152;2023-06-24T06:43:09;1.73;;;1.15;;
31848;SDS011;18414;59.352;18.152;2023-06-24T06:45:36;2.30;;;1.30;;
31848;SDS011;18414;59.352;18.152;2023-06-24T06:48:03;2.95;;;1.38;;
31848;SDS011;18414;59.352;18.152;2023-06-24T06:50:33;3.40;;;1.50;;
31848;SDS011;18414;59.352;18.152;2023-06-24T06:52:59;2.83;;;1.30;;
31848;SDS011;18414;59.352;18.152;2023-06-24T06:55:26;2.60;;;1.17;;
31848;SDS011;18414;59.352;18.152;2023-06-24T06:57:52;2.38;;;1.30;;
31848;SDS011;18414;59.352;18.152;2023-06-24T07:00:19;2.33;;;1.10;;
31848;SDS011;18414;59.352;18.152;2023-06-24T07:02:45;2.22;;;1.20;;
31848;SDS011;18414;59.352;18.152;2023-06-24T07:05:10;1.90;;;1.00;;
31848;SDS011;18414;59.352;18.152;2023-06-24T07:07:39;2.20;;;1.20;;
31848;SDS011;18414;59.352;18.152;2023-06-24T07:10:05;1.77;;;1.25;;
31848;SDS011;18414;59.352;18.152;2023-06-24T07:12:32;2.20;;;1.20;;
31848;SDS011;18414;59.352;18.152;2023-06-24T07:14:57;2.13;;;1.10;;
31848;SDS011;18414;59.352;18.152;2023-06-24T07:17:23;3.70;;;1.40;;
31848;SDS011;18414;59.352;18.152;2023-06-24T07:19:48;1.70;;;1.20;;
31848;SDS011;18414;59.352;18.152;2023-06-24T07:22:14;2.25;;;1.30;;
31848;SDS011;18414;59.352;18.152;2023-06-24T07:24:39;2.38;;;1.25;;
31848;SDS011;18414;59.352;18.152;2023-06-24T07:27:05;1.90;;;1.15;;
31848;SDS011;18414;59.352;18.152;2023-06-24T07:29:31;2.78;;;0.98;;
31848;SDS011;18414;59.352;18.152;2023-06-24T07:31:56;3.28;;;1.30;;
31848;SDS011;18414;59.352;18.152;2023-06-24T07:34:21;2.70;;;1.08;;
31848;SDS011;18414;59.352;18.152;2023-06-24T07:36:46;1.75;;;1.10;;
31848;SDS011;18414;59.352;18.152;2023-06-24T07:39:12;2.70;;;1.05;;
31848;SDS011;18414;59.352;18.152;2023-06-24T07:41:38;1.75;;;1.10;;
31848;SDS011;18414;59.352;18.152;2023-06-24T07:44:04;2.47;;;1.40;;
31848;SDS011;18414;59.352;18.152;2023-06-24T07:46:29;2.33;;;1.27;;
31848;SDS011;18414;59.352;18.152;2023-06-24T07:48:54;1.35;;;1.13;;
31848;SDS011;18414;59.352;18.152;2023-06-24T07:51:22;1.98;;;1.20;;
31848;SDS011;18414;59.352;18.152;2023-06-24T07:53:47;3.50;;;1.13;;
31848;SDS011;18414;59.352;18.152;2023-06-24T07:56:12;1.98;;;1.40;;
31848;SDS011;18414;59.352;18.152;2023-06-24T07:58:38;4.28;;;1.27;;
31848;SDS011;18414;59.352;18.152;2023-06-24T08:01:03;2.53;;;1.25;;
31848;SDS011;18414;59.352;18.152;2023-06-24T08:03:30;2.15;;;1.23;;
31848;SDS011;18414;59.352;18.152;2023-06-24T08:05:55;1.83;;;1.13;;
31848;SDS011;18414;59.352;18.152;2023-06-24T08:08:21;2.13;;;1.27;;
31848;SDS011;18414;59.352;18.152;2023-06-24T08:10:47;1.65;;;1.20;;
31848;SDS011;18414;59.352;18.152;2023-06-24T08:13:12;2.50;;;1.30;;
31848;SDS011;18414;59.352;18.152;2023-06-24T08:15:37;2.00;;;1.10;;
31848;SDS011;18414;59.352;18.152;2023-06-24T08:18:03;2.05;;;1.33;;
31848;SDS011;18414;59.352;18.152;2023-06-24T08:20:28;2.20;;;1.25;;
31848;SDS011;18414;59.352;18.152;2023-06-24T08:22:53;1.70;;;1.10;;
31848;SDS011;18414;59.352;18.152;2023-06-24T08:25:19;2.33;;;1.00;;
31848;SDS011;18414;59.352;18.152;2023-06-24T08:27:45;1.63;;;1.17;;
31848;SDS011;18414;59.352;18.152;2023-06-24T08:30:11;2.08;;;1.45;;
31848;SDS011;18414;59.352;18.152;2023-06-24T08:32:37;1.25;;;1.15;;
31848;SDS011;18414;59.352;18.152;2023-06-24T08:35:03;1.63;;;1.02;;
31848;SDS011;18414;59.352;18.152;2023-06-24T08:37:30;2.22;;;1.30;;
31848;SDS011;18414;59.352;18.152;2023-06-24T08:39:56;2.53;;;1.38;;
31848;SDS011;18414;59.352;18.152;2023-06-24T08:42:22;2.17;;;1.25;;
31848;SDS011;18414;59.352;18.152;2023-06-24T08:44:47;3.33;;;1.20;;
31848;SDS011;18414;59.352;18.152;2023-06-24T08:47:13;2.38;;;1.20;;
31848;SDS011;18414;59.352;18.152;2023-06-24T08:49:42;2.40;;;1.30;;
31848;SDS011;18414;59.352;18.152;2023-06-24T08:52:13;1.70;;;1.30;;
31848;SDS011;18414;59.352;18.152;2023-06-24T08:54:40;3.00;;;1.20;;
31848;SDS011;18414;59.352;18.152;2023-06-24T08:57:06;1.55;;;1.17;;
31848;SDS011;18414;59.352;18.152;2023-06-24T08:59:33;1.65;;;1.20;;
31848;SDS011;18414;59.352;18.152;2023-06-24T09:01:59;1.80;;;1.30;;
31848;SDS011;18414;59.352;18.152;2023-06-24T09:04:24;1.70;;;1.42;;
31848;SDS011;18414;59.352;18.152;2023-06-24T09:06:50;1.73;;;1.15;;
31848;SDS011;18414;59.352;18.152;2023-06-24T09:09:18;2.38;;;1.10;;
31848;SDS011;18414;59.352;18.152;2023-06-24T09:11:50;2.78;;;1.30;;
31848;SDS011;18414;59.352;18.152;2023-06-24T09:14:24;1.80;;;1.23;;
31848;SDS011;18414;59.352;18.152;2023-06-24T09:16:53;2.05;;;1.23;;
31848;SDS011;18414;59.352;18.152;2023-06-24T09:19:23;1.40;;;1.10;;
31848;SDS011;18414;59.352;18.152;2023-06-24T09:21:53;1.58;;;1.30;;
31848;SDS011;18414;59.352;18.152;2023-06-24T09:24:18;2.05;;;1.30;;
31848;SDS011;18414;59.352;18.152;2023-06-24T09:26:45;1.50;;;1.00;;
31848;SDS011;18414;59.352;18.152;2023-06-24T09:29:13;1.30;;;1.20;;
31848;SDS011;18414;59.352;18.152;2023-06-24T09:31:50;2.97;;;1.48;;
31848;SDS011;18414;59.352;18.152;2023-06-24T09:34:18;1.40;;;1.17;;
31848;SDS011;18414;59.352;18.152;2023-06-24T09:36:44;1.60;;;1.30;;
31848;SDS011;18414;59.352;18.152;2023-06-24T09:39:16;2.08;;;1.35;;
31848;SDS011;18414;59.352;18.152;2023-06-24T09:41:42;2.80;;;1.20;;
31848;SDS011;18414;59.352;18.152;2023-06-24T09:44:10;3.13;;;2.17;;
31848;SDS011;18414;59.352;18.152;2023-06-24T09:46:36;1.80;;;1.20;;
31848;SDS011;18414;59.352;18.152;2023-06-24T09:49:03;2.58;;;1.25;;
31848;SDS011;18414;59.352;18.152;2023-06-24T09:51:33;1.92;;;1.60;;
31848;SDS011;18414;59.352;18.152;2023-06-24T09:54:07;1.58;;;1.27;;
31848;SDS011;18414;59.352;18.152;2023-06-24T09:56:37;3.08;;;1.70;;
31848;SDS011;18414;59.352;18.152;2023-06-24T09:59:05;2.20;;;1.42;;
31848;SDS011;18414;59.352;18.152;2023-06-24T10:01:35;3.90;;;3.00;;
31848;SDS011;18414;59.352;18.152;2023-06-24T10:04:02;1.83;;;1.20;;
31848;SDS011;18414;59.352;18.152;2023-06-24T10:06:29;3.95;;;1.70;;
31848;SDS011;18414;59.352;18.152;2023-06-24T10:08:54;8.13;;;6.93;;
31848;SDS011;18414;59.352;18.152;2023-06-24T10:11:20;2.35;;;2.15;;
31848;SDS011;18414;59.352;18.152;2023-06-24T10:13:46;2.47;;;1.23;;
31848;SDS011;18414;59.352;18.152;2023-06-24T10:16:11;1.17;;;1.08;;
31848;SDS011;18414;59.352;18.152;2023-06-24T10:24:12;3.72;;;1.20;;
31848;SDS011;18414;59.352;18.152;2023-06-24T10:26:39;1.25;;;1.13;;
31848;SDS011;18414;59.352;18.152;2023-06-24T10:39:46;1.08;;;1.00;;
31848;SDS011;18414;59.352;18.152;2023-06-24T10:42:36;2.45;;;1.48;;
31848;SDS011;18414;59.352;18.152;2023-06-24T10:47:37;1.88;;;1.30;;
31848;SDS011;18414;59.352;18.152;2023-06-24T10:50:06;1.83;;;1.40;;
31848;SDS011;18414;59.352;18.152;2023-06-24T10:52:32;2.05;;;1.60;;
31848;SDS011;18414;59.352;18.152;2023-06-24T10:54:59;3.47;;;1.70;;
31848;SDS011;18414;59.352;18.152;2023-06-24T10:57:26;1.88;;;1.15;;
31848;SDS011;18414;59.352;18.152;2023-06-24T10:59:52;3.08;;;1.48;;
31848;SDS011;18414;59.352;18.152;2023-06-24T11:02:19;2.20;;;1.55;;
31848;SDS011;18414;59.352;18.152;2023-06-24T11:04:56;2.47;;;1.70;;
31848;SDS011;18414;59.352;18.152;2023-06-24T11:07:23;2.25;;;1.92;;
31848;SDS011;18414;59.352;18.152;2023-06-24T11:09:57;2.10;;;1.88;;
31848;SDS011;18414;59.352;18.152;2023-06-24T11:12:31;2.25;;;2.00;;
31848;SDS011;18414;59.352;18.152;2023-06-24T11:14:58;2.20;;;2.00;;
31848;SDS011;18414;59.352;18.152;2023-06-24T11:17:24;2.45;;;1.90;;
31848;SDS011;18414;59.352;18.152;2023-06-24T11:19:52;2.95;;;2.47;;
31848;SDS011;18414;59.352;18.152;2023-06-24T11:22:17;2.40;;;2.20;;
31848;SDS011;18414;59.352;18.152;2023-06-24T11:24:43;2.53;;;2.20;;
31848;SDS011;18414;59.352;18.152;2023-06-24T11:27:08;3.22;;;2.10;;
31848;SDS011;18414;59.352;18.152;2023-06-24T11:29:33;2.65;;;2.08;;
31848;SDS011;18414;59.352;18.152;2023-06-24T11:32:00;3.13;;;2.20;;
31848;SDS011;18414;59.352;18.152;2023-06-24T11:34:26;2.40;;;2.05;;
31848;SDS011;18414;59.352;18.152;2023-06-24T11:36:51;3.45;;;2.10;;
31848;SDS011;18414;59.352;18.152;2023-06-24T11:39:27;2.78;;;2.38;;
31848;SDS011;18414;59.352;18.152;2023-06-24T11:41:52;3.38;;;2.20;;
31848;SDS011;18414;59.352;18.152;2023-06-24T11:44:19;2.20;;;2.00;;
31848;SDS011;18414;59.352;18.152;2023-06-24T11:46:45;2.88;;;2.15;;
31848;SDS011;18414;59.352;18.152;2023-06-24T11:49:11;4.28;;;2.08;;
31848;SDS011;18414;59.352;18.152;2023-06-24T11:51:37;6.80;;;2.40;;
31848;SDS011;18414;59.352;18.152;2023-06-24T11:54:12;3.08;;;2.40;;
31848;SDS011;18414;59.352;18.152;2023-06-24T11:56:39;3.15;;;2.20;;
31848;SDS011;18414;59.352;18.152;2023-06-24T11:59:06;2.85;;;2.50;;
31848;SDS011;18414;59.352;18.152;2023-06-24T12:01:32;3.17;;;2.17;;
31848;SDS011;18414;59.352;18.152;2023-06-24T12:04:00;5.47;;;2.00;;
31848;SDS011;18414;59.352;18.152;2023-06-24T12:06:26;3.70;;;2.90;;
31848;SDS011;18414;59.352;18.152;2023-06-24T12:08:52;4.50;;;2.40;;
31848;SDS011;18414;59.352;18.152;2023-06-24T12:11:17;2.67;;;2.15;;
31848;SDS011;18414;59.352;18.152;2023-06-24T12:13:42;3.05;;;2.35;;
31848;SDS011;18414;59.352;18.152;2023-06-24T12:16:08;7.38;;;2.00;;
31848;SDS011;18414;59.352;18.152;2023-06-24T12:18:33;2.85;;;2.55;;
31848;SDS011;18414;59.352;18.152;2023-06-24T12:20:58;2.63;;;2.00;;
31848;SDS011;18414;59.352;18.152;2023-06-24T12:23:24;2.65;;;2.03;;
31848;SDS011;18414;59.352;18.152;2023-06-24T12:25:49;3.10;;;2.00;;
31848;SDS011;18414;59.352;18.152;2023-06-24T12:28:14;2.20;;;2.00;;
31848;SDS011;18414;59.352;18.152;2023-06-24T12:30:40;2.28;;;2.08;;
31848;SDS011;18414;59.352;18.152;2023-06-24T12:33:05;2.88;;;2.20;;
31848;SDS011;18414;59.352;18.152;2023-06-24T12:35:33;3.95;;;2.05;;
31848;SDS011;18414;59.352;18.152;2023-06-24T12:37:58;2.78;;;1.98;;
31848;SDS011;18414;59.352;18.152;2023-06-24T12:40:24;5.05;;;4.25;;
31848;SDS011;18414;59.352;18.152;2023-06-24T12:42:49;2.78;;;1.90;;
31848;SDS011;18414;59.352;18.152;2023-06-24T12:45:14;2.85;;;2.10;;
31848;SDS011;18414;59.352;18.152;2023-06-24T12:47:41;5.35;;;2.30;;
31848;SDS011;18414;59.352;18.152;2023-06-24T12:50:07;2.40;;;1.55;;
31848;SDS011;18414;59.352;18.152;2023-06-24T12:52:33;2.50;;;2.00;;
31848;SDS011;18414;59.352;18.152;2023-06-24T12:54:59;3.42;;;1.67;;
31848;SDS011;18414;59.352;18.152;2023-06-24T12:57:24;2.03;;;1.77;;
31848;SDS011;18414;59.352;18.152;2023-06-24T12:59:49;2.70;;;2.00;;
31848;SDS011;18414;59.352;18.152;2023-06-24T13:02:15;2.30;;;1.98;;
31848;SDS011;18414;59.352;18.152;2023-06-24T13:04:40;2.25;;;1.92;;
31848;SDS011;18414;59.352;18.152;2023-06-24T13:07:05;2.25;;;1.67;;
31848;SDS011;18414;59.352;18.152;2023-06-24T13:09:32;2.15;;;1.83;;
31848;SDS011;18414;59.352;18.152;2023-06-24T13:11:57;3.15;;;1.85;;
31848;SDS011;18414;59.352;18.152;2023-06-24T13:14:22;1.70;;;1.60;;
31848;SDS011;18414;59.352;18.152;2023-06-24T13:16:50;2.38;;;1.50;;
31848;SDS011;18414;59.352;18.152;2023-06-24T13:19:16;1.95;;;1.38;;
31848;SDS011;18414;59.352;18.152;2023-06-24T13:21:42;1.92;;;1.50;;
31848;SDS011;18414;59.352;18.152;2023-06-24T13:24:07;2.83;;;1.80;;
31848;SDS011;18414;59.352;18.152;2023-06-24T13:26:33;2.42;;;1.65;;
31848;SDS011;18414;59.352;18.152;2023-06-24T13:28:59;2.88;;;1.70;;
31848;SDS011;18414;59.352;18.152;2023-06-24T13:31:24;2.45;;;1.70;;
31848;SDS011;18414;59.352;18.152;2023-06-24T13:33:49;2.78;;;1.65;;
31848;SDS011;18414;59.352;18.152;2023-06-24T13:36:28;2.78;;;1.80;;
31848;SDS011;18414;59.352;18.152;2023-06-24T13:38:56;1.85;;;1.50;;
31848;SDS011;18414;59.352;18.152;2023-06-24T13:41:21;1.75;;;1.65;;
31848;SDS011;18414;59.352;18.152;2023-06-24T13:43:47;4.15;;;1.70;;
31848;SDS011;18414;59.352;18.152;2023-06-24T13:46:12;2.00;;;1.67;;
31848;SDS011;18414;59.352;18.152;2023-06-24T13:48:37;2.00;;;1.70;;
31848;SDS011;18414;59.352;18.152;2023-06-24T13:51:03;1.60;;;1.50;;
31848;SDS011;18414;59.352;18.152;2023-06-24T13:53:28;2.50;;;1.90;;
31848;SDS011;18414;59.352;18.152;2023-06-24T13:55:53;2.28;;;1.77;;
31848;SDS011;18414;59.352;18.152;2023-06-24T13:58:19;1.95;;;1.50;;
31848;SDS011;18414;59.352;18.152;2023-06-24T14:00:44;1.83;;;1.67;;
31848;SDS011;18414;59.352;18.152;2023-06-24T14:03:11;1.90;;;1.70;;
31848;SDS011;18414;59.352;18.152;2023-06-24T14:05:36;3.33;;;1.55;;
31848;SDS011;18414;59.352;18.152;2023-06-24T14:08:02;2.33;;;1.90;;
31848;SDS011;18414;59.352;18.152;2023-06-24T14:10:27;4.18;;;2.10;;
31848;SDS011;18414;59.352;18.152;2023-06-24T14:12:52;2.22;;;1.75;;
31848;SDS011;18414;59.352;18.152;2023-06-24T14:15:18;1.98;;;1.60;;
31848;SDS011;18414;59.352;18.152;2023-06-24T14:17:43;4.45;;;1.55;;
31848;SDS011;18414;59.352;18.152;2023-06-24T14:20:08;1.60;;;1.50;;
31848;SDS011;18414;59.352;18.152;2023-06-24T14:22:34;2.08;;;1.88;;
31848;SDS011;18414;59.352;18.152;2023-06-24T14:24:59;1.63;;;1.40;;
31848;SDS011;18414;59.352;18.152;2023-06-24T14:27:25;2.75;;;1.50;;
31848;SDS011;18414;59.352;18.152;2023-06-24T14:29:50;4.32;;;2.00;;
31848;SDS011;18414;59.352;18.152;2023-06-24T14:32:16;2.45;;;1.75;;
31848;SDS011;18414;59.352;18.152;2023-06-24T14:34:43;2.15;;;1.70;;
31848;SDS011;18414;59.352;18.152;2023-06-24T14:37:08;6.25;;;1.75;;
31848;SDS011;18414;59.352;18.152;2023-06-24T14:39:33;2.55;;;1.73;;
31848;SDS011;18414;59.352;18.152;2023-06-24T14:41:59;3.00;;;1.60;;
31848;SDS011;18414;59.352;18.152;2023-06-24T14:44:24;2.03;;;1.40;;
31848;SDS011;18414;59.352;18.152;2023-06-24T14:46:49;2.63;;;2.10;;
31848;SDS011;18414;59.352;18.152;2023-06-24T14:49:15;2.03;;;1.70;;
31848;SDS011;18414;59.352;18.152;2023-06-24T14:51:42;1.65;;;1.55;;
31848;SDS011;18414;59.352;18.152;2023-06-24T14:54:07;3.38;;;1.65;;
31848;SDS011;18414;59.352;18.152;2023-06-24T14:56:33;2.08;;;1.70;;